In Rescue
 
Open Full Screen Window  High Contrast Mode
November 19, 2019 12:00 PM CST
Present Weather: Mist
Weather Information
Wind Direction
  ---
Wind Speed
  00 kt (0 mph)
Wind Gust
  00 kt (0 mph)
Altimeter
29.79 in
Visibility
2 SM
Temperature
01° C
34° F
Dewpoint
-01° C
30° F
Humidity
87%
Sky Condition
Overcast @ 800 ft
IFR

METAR KDYT 191800Z AUTO 00000KT 2SM BR OVC008 01/M01 A2979 RMK AO2

FAA Disclaimer: The data displayed is for advisory purposes only and is not to be used for flight planning or operations.